sensor_id;sensor_type;location;lat;lon;timestamp;pressure;altitude;pressure_sealevel;temperature;humidity
9129;BME280;4599;50.906;6.786;2023-08-20T00:02:18;100704.00;;;20.12;86.94
9129;BME280;4599;50.906;6.786;2023-08-20T00:06:41;100705.47;;;20.15;87.26
9129;BME280;4599;50.906;6.786;2023-08-20T00:11:03;100707.91;;;20.24;86.73
9129;BME280;4599;50.906;6.786;2023-08-20T00:15:26;100726.16;;;20.32;86.76
9129;BME280;4599;50.906;6.786;2023-08-20T00:19:49;100729.25;;;20.36;86.79
9129;BME280;4599;50.906;6.786;2023-08-20T00:24:12;100724.53;;;20.40;86.73
9129;BME280;4599;50.906;6.786;2023-08-20T00:28:34;100733.66;;;20.44;87.22
9129;BME280;4599;50.906;6.786;2023-08-20T00:32:57;100728.09;;;20.39;87.03
9129;BME280;4599;50.906;6.786;2023-08-20T00:37:20;100732.16;;;20.41;87.15
9129;BME280;4599;50.906;6.786;2023-08-20T00:41:42;100740.31;;;20.38;87.50
9129;BME280;4599;50.906;6.786;2023-08-20T00:46:04;100732.19;;;20.33;87.25
9129;BME280;4599;50.906;6.786;2023-08-20T00:50:27;100732.34;;;20.31;87.58
9129;BME280;4599;50.906;6.786;2023-08-20T00:54:50;100724.97;;;20.27;87.68
9129;BME280;4599;50.906;6.786;2023-08-20T00:59:12;100721.41;;;20.12;87.68
9129;BME280;4599;50.906;6.786;2023-08-20T01:03:34;100710.69;;;20.07;87.45
9129;BME280;4599;50.906;6.786;2023-08-20T01:08:07;100719.13;;;20.17;86.92
9129;BME280;4599;50.906;6.786;2023-08-20T01:12:34;100681.25;;;19.90;87.57
9129;BME280;4599;50.906;6.786;2023-08-20T01:16:56;100690.53;;;20.01;87.26
9129;BME280;4599;50.906;6.786;2023-08-20T01:21:25;100696.19;;;19.96;87.34
9129;BME280;4599;50.906;6.786;2023-08-20T01:26:07;100698.47;;;19.83;87.56
9129;BME280;4599;50.906;6.786;2023-08-20T01:30:31;100711.16;;;19.86;87.85
9129;BME280;4599;50.906;6.786;2023-08-20T01:34:54;100719.94;;;19.93;87.35
9129;BME280;4599;50.906;6.786;2023-08-20T01:39:16;100711.94;;;19.78;87.29
9129;BME280;4599;50.906;6.786;2023-08-20T01:43:37;100712.09;;;19.77;87.71
9129;BME280;4599;50.906;6.786;2023-08-20T01:48:01;100713.72;;;19.70;87.59
9129;BME280;4599;50.906;6.786;2023-08-20T01:52:23;100715.31;;;19.55;88.03
9129;BME280;4599;50.906;6.786;2023-08-20T01:56:44;100717.38;;;19.43;88.35
9129;BME280;4599;50.906;6.786;2023-08-20T02:01:06;100731.19;;;19.44;88.92
9129;BME280;4599;50.906;6.786;2023-08-20T02:05:30;100726.81;;;19.52;88.83
9129;BME280;4599;50.906;6.786;2023-08-20T02:09:52;100730.09;;;19.54;88.91
9129;BME280;4599;50.906;6.786;2023-08-20T02:14:14;100742.41;;;19.52;88.45
9129;BME280;4599;50.906;6.786;2023-08-20T02:18:35;100740.50;;;19.54;88.94
9129;BME280;4599;50.906;6.786;2023-08-20T02:22:59;100738.34;;;19.50;89.58
9129;BME280;4599;50.906;6.786;2023-08-20T02:27:20;100732.88;;;19.61;88.97
9129;BME280;4599;50.906;6.786;2023-08-20T02:31:42;100732.72;;;19.62;88.99
9129;BME280;4599;50.906;6.786;2023-08-20T02:36:05;100746.88;;;19.68;88.79
9129;BME280;4599;50.906;6.786;2023-08-20T02:40:28;100758.22;;;19.67;88.93
9129;BME280;4599;50.906;6.786;2023-08-20T02:44:50;100763.47;;;19.75;88.93
9129;BME280;4599;50.906;6.786;2023-08-20T02:49:12;100763.31;;;19.76;88.13
9129;BME280;4599;50.906;6.786;2023-08-20T02:53:34;100756.50;;;19.83;87.91
9129;BME280;4599;50.906;6.786;2023-08-20T02:57:57;100747.53;;;19.78;87.47
9129;BME280;4599;50.906;6.786;2023-08-20T03:02:20;100759.56;;;19.79;87.67
9129;BME280;4599;50.906;6.786;2023-08-20T03:06:42;100763.44;;;19.67;88.28
9129;BME280;4599;50.906;6.786;2023-08-20T03:11:05;100761.00;;;19.65;88.23
9129;BME280;4599;50.906;6.786;2023-08-20T03:15:28;100763.28;;;19.68;87.99
9129;BME280;4599;50.906;6.786;2023-08-20T03:19:55;100763.13;;;19.70;87.88
9129;BME280;4599;50.906;6.786;2023-08-20T03:24:17;100764.06;;;19.61;88.36
9129;BME280;4599;50.906;6.786;2023-08-20T03:28:39;100761.78;;;19.58;88.48
9129;BME280;4599;50.906;6.786;2023-08-20T03:33:02;100770.25;;;19.60;88.11
9129;BME280;4599;50.906;6.786;2023-08-20T03:37:25;100766.31;;;19.48;88.75
9129;BME280;4599;50.906;6.786;2023-08-20T03:41:47;100775.16;;;19.37;88.92
9129;BME280;4599;50.906;6.786;2023-08-20T03:46:09;100779.38;;;19.38;89.00
9129;BME280;4599;50.906;6.786;2023-08-20T03:50:32;100790.31;;;19.42;89.71
9129;BME280;4599;50.906;6.786;2023-08-20T03:54:54;100781.41;;;19.52;89.46
9129;BME280;4599;50.906;6.786;2023-08-20T03:59:16;100789.22;;;19.44;89.78
9129;BME280;4599;50.906;6.786;2023-08-20T04:03:38;100785.78;;;19.44;89.66
9129;BME280;4599;50.906;6.786;2023-08-20T04:08:02;100799.94;;;19.49;89.80
9129;BME280;4599;50.906;6.786;2023-08-20T04:12:24;100800.75;;;19.50;89.87
9129;BME280;4599;50.906;6.786;2023-08-20T04:16:46;100806.75;;;19.50;89.51
9129;BME280;4599;50.906;6.786;2023-08-20T04:21:08;100807.91;;;19.48;89.80
9129;BME280;4599;50.906;6.786;2023-08-20T04:25:31;100794.22;;;19.46;89.67
9129;BME280;4599;50.906;6.786;2023-08-20T04:29:53;100806.75;;;19.50;89.48
9129;BME280;4599;50.906;6.786;2023-08-20T04:34:15;100820.72;;;19.49;89.87
9129;BME280;4599;50.906;6.786;2023-08-20T04:38:37;100823.50;;;19.56;89.71
9129;BME280;4599;50.906;6.786;2023-08-20T04:43:00;100809.41;;;19.58;89.88
9129;BME280;4599;50.906;6.786;2023-08-20T04:47:23;100805.63;;;19.45;89.86
9129;BME280;4599;50.906;6.786;2023-08-20T04:51:45;100829.88;;;19.61;89.16
9129;BME280;4599;50.906;6.786;2023-08-20T04:56:06;100825.16;;;19.57;89.19
9129;BME280;4599;50.906;6.786;2023-08-20T05:00:30;100821.72;;;19.56;89.12
9129;BME280;4599;50.906;6.786;2023-08-20T05:04:52;100824.78;;;19.44;89.19
9129;BME280;4599;50.906;6.786;2023-08-20T05:09:14;100831.81;;;19.59;89.32
9129;BME280;4599;50.906;6.786;2023-08-20T05:13:36;100830.41;;;19.65;89.25
9129;BME280;4599;50.906;6.786;2023-08-20T05:17:59;100836.94;;;19.77;89.11
9129;BME280;4599;50.906;6.786;2023-08-20T05:22:21;100834.84;;;19.88;88.81
9129;BME280;4599;50.906;6.786;2023-08-20T05:26:43;100831.31;;;19.98;88.29
9129;BME280;4599;50.906;6.786;2023-08-20T05:31:05;100831.13;;;19.83;88.65
9129;BME280;4599;50.906;6.786;2023-08-20T05:35:28;100832.44;;;19.95;88.51
9129;BME280;4599;50.906;6.786;2023-08-20T05:39:50;100827.78;;;20.23;86.87
9129;BME280;4599;50.906;6.786;2023-08-20T05:44:13;100833.22;;;20.54;85.79
9129;BME280;4599;50.906;6.786;2023-08-20T05:48:34;100843.97;;;20.75;85.71
9129;BME280;4599;50.906;6.786;2023-08-20T05:52:58;100836.47;;;20.96;84.55
9129;BME280;4599;50.906;6.786;2023-08-20T05:57:20;100849.50;;;21.04;84.55
9129;BME280;4599;50.906;6.786;2023-08-20T06:01:42;100854.03;;;21.02;84.82
9129;BME280;4599;50.906;6.786;2023-08-20T06:06:04;100857.47;;;21.03;84.53
9129;BME280;4599;50.906;6.786;2023-08-20T06:10:31;100854.03;;;21.02;84.35
9129;BME280;4599;50.906;6.786;2023-08-20T06:14:53;100854.88;;;21.11;83.22
9129;BME280;4599;50.906;6.786;2023-08-20T06:19:15;100855.34;;;21.06;82.99
9129;BME280;4599;50.906;6.786;2023-08-20T06:23:39;100852.25;;;21.19;82.89
9129;BME280;4599;50.906;6.786;2023-08-20T06:28:08;100862.16;;;21.40;81.76
9129;BME280;4599;50.906;6.786;2023-08-20T06:32:30;100849.03;;;21.64;79.87
9129;BME280;4599;50.906;6.786;2023-08-20T06:36:52;100849.91;;;21.48;81.43
9129;BME280;4599;50.906;6.786;2023-08-20T06:41:14;100857.56;;;21.50;80.85
9129;BME280;4599;50.906;6.786;2023-08-20T06:45:38;100861.75;;;21.67;80.59
9129;BME280;4599;50.906;6.786;2023-08-20T06:50:00;100868.81;;;21.97;79.58
9129;BME280;4599;50.906;6.786;2023-08-20T06:54:22;100855.50;;;22.15;80.08
9129;BME280;4599;50.906;6.786;2023-08-20T06:58:44;100863.66;;;22.12;80.08
9129;BME280;4599;50.906;6.786;2023-08-20T07:03:07;100873.84;;;21.99;80.51
9129;BME280;4599;50.906;6.786;2023-08-20T07:07:29;100870.28;;;22.22;80.12
9129;BME280;4599;50.906;6.786;2023-08-20T07:11:51;100867.28;;;22.33;79.17
9129;BME280;4599;50.906;6.786;2023-08-20T07:16:13;100866.44;;;22.41;78.34
9129;BME280;4599;50.906;6.786;2023-08-20T07:20:37;100879.28;;;22.43;78.92
9129;BME280;4599;50.906;6.786;2023-08-20T07:24:59;100868.75;;;22.59;77.62
9129;BME280;4599;50.906;6.786;2023-08-20T07:29:21;100871.59;;;22.49;78.13
9129;BME280;4599;50.906;6.786;2023-08-20T07:33:45;100870.19;;;22.61;77.08
9129;BME280;4599;50.906;6.786;2023-08-20T07:38:09;100868.41;;;22.85;77.00
9129;BME280;4599;50.906;6.786;2023-08-20T07:42:31;100869.81;;;22.72;76.50
9129;BME280;4599;50.906;6.786;2023-08-20T07:46:52;100863.47;;;22.90;77.00
9129;BME280;4599;50.906;6.786;2023-08-20T07:51:14;100866.59;;;23.22;77.00
9129;BME280;4599;50.906;6.786;2023-08-20T07:55:38;100875.63;;;23.49;75.45
9129;BME280;4599;50.906;6.786;2023-08-20T08:00:01;100884.56;;;23.55;75.71
9129;BME280;4599;50.906;6.786;2023-08-20T08:04:26;100862.53;;;23.64;74.72
9129;BME280;4599;50.906;6.786;2023-08-20T08:08:48;100874.97;;;23.91;73.86
9129;BME280;4599;50.906;6.786;2023-08-20T08:13:12;100886.16;;;24.14;74.27
9129;BME280;4599;50.906;6.786;2023-08-20T08:17:34;100883.13;;;24.32;73.39
9129;BME280;4599;50.906;6.786;2023-08-20T08:21:57;100877.06;;;24.32;70.81
9129;BME280;4599;50.906;6.786;2023-08-20T08:26:19;100887.59;;;24.59;72.08
9129;BME280;4599;50.906;6.786;2023-08-20T08:30:43;100891.47;;;24.63;70.56
9129;BME280;4599;50.906;6.786;2023-08-20T08:35:05;100888.69;;;24.86;69.54
9129;BME280;4599;50.906;6.786;2023-08-20T08:39:27;100889.13;;;24.90;69.81
9129;BME280;4599;50.906;6.786;2023-08-20T08:43:49;100888.25;;;25.10;69.16
9129;BME280;4599;50.906;6.786;2023-08-20T08:48:12;100889.97;;;25.24;68.74
9129;BME280;4599;50.906;6.786;2023-08-20T08:52:36;100883.50;;;25.55;68.18
9129;BME280;4599;50.906;6.786;2023-08-20T08:56:58;100889.28;;;25.71;66.21
9129;BME280;4599;50.906;6.786;2023-08-20T09:01:21;100883.00;;;26.20;62.66
9129;BME280;4599;50.906;6.786;2023-08-20T09:05:49;100885.38;;;26.15;66.08
9129;BME280;4599;50.906;6.786;2023-08-20T09:10:11;100887.97;;;26.08;64.71
9129;BME280;4599;50.906;6.786;2023-08-20T09:14:33;100890.50;;;26.36;64.27
9129;BME280;4599;50.906;6.786;2023-08-20T09:18:59;100896.03;;;26.74;63.19
9129;BME280;4599;50.906;6.786;2023-08-20T09:23:22;100891.78;;;26.86;63.23
9129;BME280;4599;50.906;6.786;2023-08-20T09:27:44;100902.28;;;26.60;62.97
9129;BME280;4599;50.906;6.786;2023-08-20T09:32:06;100899.44;;;26.61;63.86
9129;BME280;4599;50.906;6.786;2023-08-20T09:36:33;100903.84;;;26.35;64.91
9129;BME280;4599;50.906;6.786;2023-08-20T09:40:56;100896.16;;;26.27;64.35
9129;BME280;4599;50.906;6.786;2023-08-20T09:45:19;100901.25;;;25.94;65.46
9129;BME280;4599;50.906;6.786;2023-08-20T09:49:42;100898.25;;;25.56;67.50
9129;BME280;4599;50.906;6.786;2023-08-20T09:54:10;100905.50;;;25.26;66.86
9129;BME280;4599;50.906;6.786;2023-08-20T09:58:37;100896.25;;;25.30;64.46
9129;BME280;4599;50.906;6.786;2023-08-20T10:02:59;100913.69;;;25.44;63.73
9129;BME280;4599;50.906;6.786;2023-08-20T10:07:22;100896.38;;;26.32;62.19
9129;BME280;4599;50.906;6.786;2023-08-20T10:11:45;100900.47;;;27.00;61.50
9129;BME280;4599;50.906;6.786;2023-08-20T10:16:08;100909.13;;;26.54;64.11
9129;BME280;4599;50.906;6.786;2023-08-20T10:20:31;100912.44;;;26.15;66.99
9129;BME280;4599;50.906;6.786;2023-08-20T10:24:53;100919.44;;;25.89;68.16
9129;BME280;4599;50.906;6.786;2023-08-20T10:29:34;100916.06;;;25.60;70.34
9129;BME280;4599;50.906;6.786;2023-08-20T10:33:58;100915.31;;;25.73;71.36
9129;BME280;4599;50.906;6.786;2023-08-20T10:38:20;100909.13;;;26.61;63.76
9129;BME280;4599;50.906;6.786;2023-08-20T10:42:42;100908.94;;;26.62;63.87
9129;BME280;4599;50.906;6.786;2023-08-20T10:47:06;100921.88;;;26.44;63.66
9129;BME280;4599;50.906;6.786;2023-08-20T10:51:33;100905.66;;;26.28;66.34
9129;BME280;4599;50.906;6.786;2023-08-20T10:56:07;100901.47;;;27.25;62.40
9129;BME280;4599;50.906;6.786;2023-08-20T11:00:29;100899.41;;;29.05;55.05
9129;BME280;4599;50.906;6.786;2023-08-20T11:04:51;100906.84;;;29.69;54.37
9129;BME280;4599;50.906;6.786;2023-08-20T11:09:15;100912.94;;;30.06;50.86
9129;BME280;4599;50.906;6.786;2023-08-20T11:13:37;100903.88;;;30.43;51.67
9129;BME280;4599;50.906;6.786;2023-08-20T11:17:58;100904.56;;;30.50;50.06
9129;BME280;4599;50.906;6.786;2023-08-20T11:22:21;100905.22;;;31.57;46.80
9129;BME280;4599;50.906;6.786;2023-08-20T11:26:44;100891.66;;;32.38;42.36
9129;BME280;4599;50.906;6.786;2023-08-20T11:31:06;100896.19;;;32.71;40.63
9129;BME280;4599;50.906;6.786;2023-08-20T11:35:29;100893.72;;;33.36;39.08
9129;BME280;4599;50.906;6.786;2023-08-20T11:39:51;100895.25;;;33.54;42.55
9129;BME280;4599;50.906;6.786;2023-08-20T11:44:20;100890.38;;;33.89;38.66
9129;BME280;4599;50.906;6.786;2023-08-20T11:49:00;100887.03;;;34.26;39.54
9129;BME280;4599;50.906;6.786;2023-08-20T11:53:23;100894.44;;;34.87;38.75
9129;BME280;4599;50.906;6.786;2023-08-20T11:57:49;100893.19;;;35.00;39.19
9129;BME280;4599;50.906;6.786;2023-08-20T12:02:13;100883.78;;;36.12;35.25
9129;BME280;4599;50.906;6.786;2023-08-20T12:06:38;100882.44;;;36.14;35.36
9129;BME280;4599;50.906;6.786;2023-08-20T12:11:00;100889.06;;;35.14;36.20
9129;BME280;4599;50.906;6.786;2023-08-20T12:15:24;100878.53;;;35.55;35.59
9129;BME280;4599;50.906;6.786;2023-08-20T12:19:48;100874.97;;;36.11;34.06
9129;BME280;4599;50.906;6.786;2023-08-20T12:24:10;100866.19;;;36.31;34.44
9129;BME280;4599;50.906;6.786;2023-08-20T12:28:32;100858.91;;;36.97;32.26
9129;BME280;4599;50.906;6.786;2023-08-20T12:32:54;100858.66;;;37.63;27.70
9129;BME280;4599;50.906;6.786;2023-08-20T12:37:17;100852.53;;;39.77;28.14
9129;BME280;4599;50.906;6.786;2023-08-20T12:41:39;100861.94;;;36.55;31.62
9129;BME280;4599;50.906;6.786;2023-08-20T12:46:01;100861.25;;;34.31;39.66
9129;BME280;4599;50.906;6.786;2023-08-20T12:50:24;100851.03;;;35.39;34.92
9129;BME280;4599;50.906;6.786;2023-08-20T12:54:47;100856.38;;;34.92;34.27
9129;BME280;4599;50.906;6.786;2023-08-20T12:59:09;100850.78;;;33.23;40.08
9129;BME280;4599;50.906;6.786;2023-08-20T13:03:32;100846.44;;;34.77;38.09
9129;BME280;4599;50.906;6.786;2023-08-20T13:07:55;100846.31;;;34.99;34.92
9129;BME280;4599;50.906;6.786;2023-08-20T13:12:19;100841.78;;;35.62;35.65
9129;BME280;4599;50.906;6.786;2023-08-20T13:16:45;100838.63;;;35.80;35.28
9129;BME280;4599;50.906;6.786;2023-08-20T13:21:08;100851.13;;;33.75;38.48
9129;BME280;4599;50.906;6.786;2023-08-20T13:25:30;100841.94;;;32.17;42.26
9129;BME280;4599;50.906;6.786;2023-08-20T13:29:54;100837.44;;;31.73;43.34
9129;BME280;4599;50.906;6.786;2023-08-20T13:34:16;100837.53;;;32.56;42.08
9129;BME280;4599;50.906;6.786;2023-08-20T13:38:38;100846.19;;;33.62;38.31
9129;BME280;4599;50.906;6.786;2023-08-20T13:42:59;100846.22;;;32.18;42.90
9129;BME280;4599;50.906;6.786;2023-08-20T13:47:23;100840.03;;;32.13;43.68
9129;BME280;4599;50.906;6.786;2023-08-20T13:51:45;100842.16;;;31.99;42.74
9129;BME280;4599;50.906;6.786;2023-08-20T13:56:06;100827.84;;;32.45;43.49
9129;BME280;4599;50.906;6.786;2023-08-20T14:00:28;100838.84;;;32.20;43.25
9129;BME280;4599;50.906;6.786;2023-08-20T14:04:52;100834.34;;;31.24;45.75
9129;BME280;4599;50.906;6.786;2023-08-20T14:09:14;100838.53;;;30.32;48.11
9129;BME280;4599;50.906;6.786;2023-08-20T14:13:38;100838.88;;;29.76;50.00
9129;BME280;4599;50.906;6.786;2023-08-20T14:18:00;100833.09;;;29.86;48.53
9129;BME280;4599;50.906;6.786;2023-08-20T14:22:23;100821.97;;;30.37;47.27
9129;BME280;4599;50.906;6.786;2023-08-20T14:26:45;100819.50;;;30.88;46.55
9129;BME280;4599;50.906;6.786;2023-08-20T14:31:07;100818.44;;;31.13;45.86
9129;BME280;4599;50.906;6.786;2023-08-20T14:35:29;100827.69;;;31.50;46.29
9129;BME280;4599;50.906;6.786;2023-08-20T14:39:53;100822.53;;;31.43;44.77
9129;BME280;4599;50.906;6.786;2023-08-20T14:44:15;100808.66;;;30.90;45.55
9129;BME280;4599;50.906;6.786;2023-08-20T14:48:37;100813.84;;;30.61;46.61
9129;BME280;4599;50.906;6.786;2023-08-20T14:53:00;100805.22;;;30.66;46.49
9129;BME280;4599;50.906;6.786;2023-08-20T14:57:23;100803.97;;;30.57;47.72
9129;BME280;4599;50.906;6.786;2023-08-20T15:01:56;100800.72;;;30.55;49.20
9129;BME280;4599;50.906;6.786;2023-08-20T15:06:18;100794.16;;;30.57;46.54
9129;BME280;4599;50.906;6.786;2023-08-20T15:10:41;100797.50;;;30.41;47.33
9129;BME280;4599;50.906;6.786;2023-08-20T15:15:06;100796.78;;;30.34;47.84
9129;BME280;4599;50.906;6.786;2023-08-20T15:19:28;100795.13;;;30.10;45.91
9129;BME280;4599;50.906;6.786;2023-08-20T15:23:50;100793.81;;;29.89;48.89
9129;BME280;4599;50.906;6.786;2023-08-20T15:28:12;100805.22;;;29.90;48.59
9129;BME280;4599;50.906;6.786;2023-08-20T15:32:35;100796.00;;;29.92;48.88
9129;BME280;4599;50.906;6.786;2023-08-20T15:36:58;100794.56;;;29.78;48.89
9129;BME280;4599;50.906;6.786;2023-08-20T15:41:19;100796.78;;;29.63;49.27
9129;BME280;4599;50.906;6.786;2023-08-20T15:45:43;100794.63;;;29.42;48.53
9129;BME280;4599;50.906;6.786;2023-08-20T15:50:07;100793.59;;;29.25;49.97
9129;BME280;4599;50.906;6.786;2023-08-20T15:54:29;100789.31;;;29.05;48.04
9129;BME280;4599;50.906;6.786;2023-08-20T15:58:51;100789.69;;;28.73;50.73
9129;BME280;4599;50.906;6.786;2023-08-20T16:03:12;100793.06;;;28.30;53.19
9129;BME280;4599;50.906;6.786;2023-08-20T16:07:36;100788.97;;;28.03;54.66
9129;BME280;4599;50.906;6.786;2023-08-20T16:11:59;100792.13;;;27.87;54.22
9129;BME280;4599;50.906;6.786;2023-08-20T16:16:21;100780.38;;;27.83;53.16
9129;BME280;4599;50.906;6.786;2023-08-20T16:20:44;100777.78;;;27.76;54.28
9129;BME280;4599;50.906;6.786;2023-08-20T16:25:07;100783.53;;;27.66;54.06
9129;BME280;4599;50.906;6.786;2023-08-20T16:29:29;100774.47;;;27.56;53.64
9129;BME280;4599;50.906;6.786;2023-08-20T16:33:51;100775.13;;;27.45;54.60
9129;BME280;4599;50.906;6.786;2023-08-20T16:38:16;100786.31;;;27.20;55.62
9129;BME280;4599;50.906;6.786;2023-08-20T16:42:39;100783.69;;;27.14;54.79
9129;BME280;4599;50.906;6.786;2023-08-20T16:47:01;100777.66;;;27.00;55.66
9129;BME280;4599;50.906;6.786;2023-08-20T16:51:23;100790.00;;;27.00;57.24
9129;BME280;4599;50.906;6.786;2023-08-20T16:55:50;100786.56;;;26.93;55.27
9129;BME280;4599;50.906;6.786;2023-08-20T17:00:14;100798.31;;;26.97;56.14
9129;BME280;4599;50.906;6.786;2023-08-20T17:04:36;100803.56;;;26.97;55.96
9129;BME280;4599;50.906;6.786;2023-08-20T17:08:57;100788.63;;;26.78;58.28
9129;BME280;4599;50.906;6.786;2023-08-20T17:13:20;100788.03;;;26.49;57.66
9129;BME280;4599;50.906;6.786;2023-08-20T17:17:43;100786.19;;;26.63;56.50
9129;BME280;4599;50.906;6.786;2023-08-20T17:22:06;100786.63;;;26.53;54.75
9129;BME280;4599;50.906;6.786;2023-08-20T17:26:28;100779.72;;;26.52;53.77
9129;BME280;4599;50.906;6.786;2023-08-20T17:30:50;100788.22;;;26.48;53.79
9129;BME280;4599;50.906;6.786;2023-08-20T17:35:14;100782.16;;;26.34;55.47
9129;BME280;4599;50.906;6.786;2023-08-20T17:39:36;100787.19;;;26.29;55.04
9129;BME280;4599;50.906;6.786;2023-08-20T17:43:59;100786.75;;;26.12;56.86
9129;BME280;4599;50.906;6.786;2023-08-20T17:48:21;100790.78;;;26.02;56.77
9129;BME280;4599;50.906;6.786;2023-08-20T17:52:45;100786.16;;;26.04;53.78
9129;BME280;4599;50.906;6.786;2023-08-20T17:57:08;100789.94;;;25.88;55.12
9129;BME280;4599;50.906;6.786;2023-08-20T18:01:30;100791.50;;;25.69;58.49
9129;BME280;4599;50.906;6.786;2023-08-20T18:05:52;100793.88;;;25.58;57.62
9129;BME280;4599;50.906;6.786;2023-08-20T18:10:18;100785.34;;;25.49;57.01
9129;BME280;4599;50.906;6.786;2023-08-20T18:14:39;100795.84;;;25.49;55.89
9129;BME280;4599;50.906;6.786;2023-08-20T18:19:01;100792.56;;;25.41;56.73
9129;BME280;4599;50.906;6.786;2023-08-20T18:23:24;100794.78;;;25.37;56.55
9129;BME280;4599;50.906;6.786;2023-08-20T18:27:47;100791.28;;;25.23;56.39
9129;BME280;4599;50.906;6.786;2023-08-20T18:32:09;100802.56;;;25.17;57.19
9129;BME280;4599;50.906;6.786;2023-08-20T18:36:31;100801.44;;;24.99;59.07
9129;BME280;4599;50.906;6.786;2023-08-20T18:40:52;100798.91;;;24.84;59.18
9129;BME280;4599;50.906;6.786;2023-08-20T18:45:16;100796.59;;;24.74;59.04
9129;BME280;4599;50.906;6.786;2023-08-20T18:49:38;100802.75;;;24.60;60.29
9129;BME280;4599;50.906;6.786;2023-08-20T18:54:00;100813.69;;;24.43;60.35
9129;BME280;4599;50.906;6.786;2023-08-20T18:58:22;100814.31;;;24.23;61.00
9129;BME280;4599;50.906;6.786;2023-08-20T19:02:45;100811.53;;;24.10;61.61
9129;BME280;4599;50.906;6.786;2023-08-20T19:07:07;100822.25;;;23.94;62.48
9129;BME280;4599;50.906;6.786;2023-08-20T19:11:30;100830.94;;;23.80;62.51
9129;BME280;4599;50.906;6.786;2023-08-20T19:15:52;100840.16;;;23.76;63.15
9129;BME280;4599;50.906;6.786;2023-08-20T19:20:16;100835.53;;;23.78;62.99
9129;BME280;4599;50.906;6.786;2023-08-20T19:24:38;100836.56;;;23.77;62.63
9129;BME280;4599;50.906;6.786;2023-08-20T19:29:00;100836.22;;;23.65;63.71
9129;BME280;4599;50.906;6.786;2023-08-20T19:33:22;100818.44;;;23.46;64.01
9129;BME280;4599;50.906;6.786;2023-08-20T19:37:45;100835.16;;;23.45;66.04
9129;BME280;4599;50.906;6.786;2023-08-20T19:42:07;100837.63;;;23.39;64.88
9129;BME280;4599;50.906;6.786;2023-08-20T19:46:29;100843.41;;;23.34;66.59
9129;BME280;4599;50.906;6.786;2023-08-20T19:50:51;100837.09;;;23.28;66.91
9129;BME280;4599;50.906;6.786;2023-08-20T19:55:14;100844.13;;;23.28;67.05
9129;BME280;4599;50.906;6.786;2023-08-20T19:59:37;100851.16;;;23.13;67.47
9129;BME280;4599;50.906;6.786;2023-08-20T20:03:58;100848.72;;;23.11;66.79
9129;BME280;4599;50.906;6.786;2023-08-20T20:08:22;100848.78;;;23.03;67.49
9129;BME280;4599;50.906;6.786;2023-08-20T20:12:47;100856.94;;;22.86;67.82
9129;BME280;4599;50.906;6.786;2023-08-20T20:17:10;100869.09;;;22.78;68.58
9129;BME280;4599;50.906;6.786;2023-08-20T20:21:32;100868.84;;;22.73;67.51
9129;BME280;4599;50.906;6.786;2023-08-20T20:25:54;100879.97;;;22.67;67.62
9129;BME280;4599;50.906;6.786;2023-08-20T20:30:17;100873.25;;;22.65;67.96
9129;BME280;4599;50.906;6.786;2023-08-20T20:34:39;100871.25;;;22.52;69.01
9129;BME280;4599;50.906;6.786;2023-08-20T20:39:01;100874.22;;;22.49;68.77
9129;BME280;4599;50.906;6.786;2023-08-20T20:43:23;100878.84;;;22.39;69.00
9129;BME280;4599;50.906;6.786;2023-08-20T20:47:47;100880.81;;;22.37;69.01
9129;BME280;4599;50.906;6.786;2023-08-20T20:52:09;100881.69;;;22.29;68.79
9129;BME280;4599;50.906;6.786;2023-08-20T20:56:31;100874.41;;;22.17;69.23
9129;BME280;4599;50.906;6.786;2023-08-20T21:00:55;100886.31;;;22.19;69.35
9129;BME280;4599;50.906;6.786;2023-08-20T21:05:19;100896.16;;;22.09;70.32
9129;BME280;4599;50.906;6.786;2023-08-20T21:09:41;100899.41;;;22.11;69.35
9129;BME280;4599;50.906;6.786;2023-08-20T21:14:03;100901.53;;;22.08;68.95
9129;BME280;4599;50.906;6.786;2023-08-20T21:18:25;100895.72;;;21.98;70.75
9129;BME280;4599;50.906;6.786;2023-08-20T21:22:48;100898.50;;;21.96;70.88
9129;BME280;4599;50.906;6.786;2023-08-20T21:27:10;100898.53;;;21.80;71.20
9129;BME280;4599;50.906;6.786;2023-08-20T21:31:32;100902.44;;;21.84;71.68
9129;BME280;4599;50.906;6.786;2023-08-20T21:35:54;100896.75;;;21.72;70.40
9129;BME280;4599;50.906;6.786;2023-08-20T21:40:18;100896.94;;;21.71;70.91
9129;BME280;4599;50.906;6.786;2023-08-20T21:44:40;100893.06;;;21.59;71.75
9129;BME280;4599;50.906;6.786;2023-08-20T21:49:01;100895.03;;;21.49;71.53
9129;BME280;4599;50.906;6.786;2023-08-20T21:53:25;100891.31;;;21.43;72.16
9129;BME280;4599;50.906;6.786;2023-08-20T21:57:49;100886.25;;;21.42;71.76
9129;BME280;4599;50.906;6.786;2023-08-20T22:02:11;100888.88;;;21.33;73.22
9129;BME280;4599;50.906;6.786;2023-08-20T22:06:33;100882.69;;;21.34;72.77
9129;BME280;4599;50.906;6.786;2023-08-20T22:10:55;100882.69;;;21.26;72.83
9129;BME280;4599;50.906;6.786;2023-08-20T22:15:19;100888.91;;;21.25;73.18
9129;BME280;4599;50.906;6.786;2023-08-20T22:19:40;100883.53;;;21.19;73.44
9129;BME280;4599;50.906;6.786;2023-08-20T22:24:03;100894.28;;;21.08;74.20
9129;BME280;4599;50.906;6.786;2023-08-20T22:28:25;100896.06;;;21.07;74.25
9129;BME280;4599;50.906;6.786;2023-08-20T22:32:48;100887.78;;;21.04;74.30
9129;BME280;4599;50.906;6.786;2023-08-20T22:37:10;100902.59;;;20.95;74.50
9129;BME280;4599;50.906;6.786;2023-08-20T22:41:32;100891.03;;;20.90;74.74
9129;BME280;4599;50.906;6.786;2023-08-20T22:45:54;100891.66;;;20.92;74.88
9129;BME280;4599;50.906;6.786;2023-08-20T22:50:17;100880.75;;;20.88;74.96
9129;BME280;4599;50.906;6.786;2023-08-20T22:54:39;100879.63;;;20.66;75.75
9129;BME280;4599;50.906;6.786;2023-08-20T22:59:01;100876.69;;;20.61;76.09
9129;BME280;4599;50.906;6.786;2023-08-20T23:03:23;100886.47;;;20.67;75.65
9129;BME280;4599;50.906;6.786;2023-08-20T23:07:46;100875.38;;;20.57;76.41
9129;BME280;4599;50.906;6.786;2023-08-20T23:12:08;100885.47;;;20.52;77.02
9129;BME280;4599;50.906;6.786;2023-08-20T23:16:31;100873.91;;;20.47;77.31
9129;BME280;4599;50.906;6.786;2023-08-20T23:20:58;100875.69;;;20.46;77.48
9129;BME280;4599;50.906;6.786;2023-08-20T23:25:22;100876.66;;;20.45;77.38
9129;BME280;4599;50.906;6.786;2023-08-20T23:29:44;100882.03;;;20.35;77.13